createdAt,value
2019-03-04T00:00:55.059Z,65.06
2019-03-04T00:03:24.297Z,64.93
2019-03-04T00:05:53.540Z,65.10
2019-03-04T00:08:22.754Z,65.11
2019-03-04T00:10:51.958Z,65.06
2019-03-04T00:13:21.168Z,65.15
2019-03-04T00:15:50.374Z,65.41
2019-03-04T00:18:19.675Z,65.45
2019-03-04T00:20:48.896Z,65.11
2019-03-04T00:23:18.097Z,65.06
2019-03-04T00:25:47.285Z,65.16
2019-03-04T00:28:16.504Z,65.21
2019-03-04T00:30:45.709Z,65.26
2019-03-04T00:33:14.972Z,65.41
2019-03-04T00:35:44.283Z,65.56
2019-03-04T00:38:13.532Z,64.94
2019-03-04T00:40:42.757Z,65.13
2019-03-04T00:43:11.969Z,64.85
2019-03-04T00:45:41.215Z,64.72
2019-03-04T00:48:10.425Z,64.72
2019-03-04T00:50:39.621Z,64.64
2019-03-04T00:53:08.849Z,64.39
2019-03-04T00:55:38.014Z,64.41
2019-03-04T00:58:07.227Z,64.33
2019-03-04T01:00:36.543Z,64.43
2019-03-04T01:03:06.479Z,64.10
2019-03-04T01:05:35.644Z,64.07
2019-03-04T01:08:04.837Z,64.01
2019-03-04T01:10:34.040Z,64.05
2019-03-04T01:13:03.229Z,63.95
2019-03-04T01:15:32.420Z,63.88
2019-03-04T01:18:01.616Z,63.64
2019-03-04T01:20:30.824Z,63.67
2019-03-04T01:23:00.035Z,63.74
2019-03-04T01:25:29.356Z,63.61
2019-03-04T01:27:58.550Z,63.45
2019-03-04T01:30:28.906Z,63.36
2019-03-04T01:32:58.098Z,63.52
2019-03-04T01:35:27.408Z,63.45
2019-03-04T01:37:56.579Z,63.60
2019-03-04T01:40:25.786Z,63.65
2019-03-04T01:42:54.995Z,63.46
2019-03-04T01:45:24.185Z,63.56
2019-03-04T01:47:53.374Z,63.55
2019-03-04T01:50:22.570Z,63.42
2019-03-04T01:52:51.777Z,62.96
2019-03-04T01:55:21.033Z,63.09
2019-03-04T01:57:50.223Z,63.16
2019-03-04T02:00:20.107Z,63.30
2019-03-04T02:02:51.940Z,63.60
2019-03-04T02:05:22.043Z,63.73
2019-03-04T02:07:51.245Z,63.73
2019-03-04T02:10:20.671Z,63.88
2019-03-04T02:12:50.380Z,63.95
2019-03-04T02:15:19.930Z,64.04
2019-03-04T02:17:49.175Z,64.08
2019-03-04T02:20:19.032Z,64.20
2019-03-04T02:22:48.321Z,64.33
2019-03-04T02:25:18.601Z,64.15
2019-03-04T02:27:50.857Z,64.36
2019-03-04T02:30:25.598Z,64.17
2019-03-04T02:32:53.868Z,64.29
2019-03-04T02:35:23.171Z,64.21
2019-03-04T02:37:52.361Z,64.19
2019-03-04T02:40:21.564Z,64.00
2019-03-04T02:42:50.767Z,63.79
2019-03-04T02:45:20.063Z,63.96
2019-03-04T02:47:49.270Z,64.10
2019-03-04T02:50:18.458Z,64.37
2019-03-04T02:52:47.677Z,64.53
2019-03-04T02:55:17.105Z,64.56
2019-03-04T02:57:46.525Z,64.79
2019-03-04T03:00:16.781Z,64.76
2019-03-04T03:02:46.043Z,64.84
2019-03-04T03:05:15.280Z,65.00
2019-03-04T03:07:44.571Z,64.99
2019-03-04T03:10:14.037Z,65.10
2019-03-04T03:12:43.202Z,65.30
2019-03-04T03:15:12.762Z,65.16
2019-03-04T03:17:42.129Z,65.16
2019-03-04T03:20:11.721Z,64.79
2019-03-04T03:22:40.939Z,64.93
2019-03-04T03:25:10.205Z,64.78
2019-03-04T03:27:39.409Z,64.76
2019-03-04T03:30:10.128Z,64.83
2019-03-04T03:32:39.439Z,64.75
2019-03-04T03:35:09.317Z,64.78
2019-03-04T03:37:38.518Z,64.64
2019-03-04T03:40:09.693Z,64.74
2019-03-04T03:42:39.027Z,64.71
2019-03-04T03:45:08.536Z,64.43
2019-03-04T03:47:37.782Z,64.59
2019-03-04T03:50:08.104Z,64.51
2019-03-04T03:52:37.327Z,64.58
2019-03-04T03:55:07.932Z,64.70
2019-03-04T03:57:37.186Z,64.60
2019-03-04T04:00:10.427Z,64.72
2019-03-04T04:02:39.656Z,64.30
2019-03-04T04:05:08.973Z,64.47
2019-03-04T04:07:38.176Z,64.52
2019-03-04T04:10:09.185Z,64.75
2019-03-04T04:12:38.414Z,64.65
2019-03-04T04:15:07.927Z,64.79
2019-03-04T04:17:37.107Z,64.89
2019-03-04T04:20:06.881Z,64.75
2019-03-04T04:22:36.099Z,64.86
2019-03-04T04:25:05.434Z,64.96
2019-03-04T04:27:34.617Z,64.76
2019-03-04T04:30:04.058Z,64.89
2019-03-04T04:32:33.304Z,64.76
2019-03-04T04:35:02.523Z,64.88
2019-03-04T04:37:31.728Z,64.55
2019-03-04T04:40:00.961Z,64.60
2019-03-04T04:42:30.164Z,64.49
2019-03-04T04:44:59.346Z,64.57
2019-03-04T04:47:28.537Z,64.33
2019-03-04T04:49:57.775Z,64.10
2019-03-04T04:52:26.996Z,63.78
2019-03-04T04:54:56.204Z,63.41
2019-03-04T04:57:25.385Z,63.18
2019-03-04T04:59:54.611Z,63.08
2019-03-04T05:02:23.807Z,62.74
2019-03-04T05:04:52.987Z,62.70
2019-03-04T05:07:22.204Z,62.51
2019-03-04T05:09:51.393Z,63.02
2019-03-04T05:12:20.603Z,62.95
2019-03-04T05:14:49.790Z,62.76
2019-03-04T05:17:18.978Z,62.59
2019-03-04T05:19:48.178Z,62.29
2019-03-04T05:22:17.358Z,62.44
2019-03-04T05:24:46.572Z,62.32
2019-03-04T05:27:15.766Z,62.17
2019-03-04T05:29:45.995Z,62.04
2019-03-04T05:32:15.246Z,61.80
2019-03-04T05:34:44.482Z,61.85
2019-03-04T05:37:34.058Z,61.26
2019-03-04T05:40:03.292Z,61.23
2019-03-04T05:42:32.478Z,60.98
2019-03-04T05:45:01.679Z,61.22
2019-03-04T05:47:30.844Z,61.39
2019-03-04T05:50:00.298Z,61.44
2019-03-04T05:52:29.515Z,61.42
2019-03-04T05:54:58.720Z,61.72
2019-03-04T05:57:27.914Z,61.45
2019-03-04T05:59:57.115Z,61.56
2019-03-04T06:02:26.329Z,60.45
2019-03-04T06:04:55.572Z,60.74
2019-03-04T06:07:58.637Z,59.58
2019-03-04T06:10:29.336Z,59.04
2019-03-04T06:12:59.032Z,58.45
2019-03-04T06:15:28.354Z,58.69
2019-03-04T06:17:57.548Z,59.15
2019-03-04T06:20:26.749Z,59.59
2019-03-04T06:22:55.945Z,59.48
2019-03-04T06:25:26.966Z,59.71
2019-03-04T06:27:56.142Z,59.95
2019-03-04T06:30:25.939Z,60.21
2019-03-04T06:32:55.137Z,60.45
2019-03-04T06:35:24.353Z,60.44
2019-03-04T06:37:53.531Z,60.04
2019-03-04T06:40:25.587Z,60.08
2019-03-04T06:42:54.790Z,59.91
2019-03-04T06:45:24.083Z,59.93
2019-03-04T06:47:53.269Z,59.68
2019-03-04T06:50:47.212Z,59.56
2019-03-04T06:53:50.123Z,59.54
2019-03-04T06:56:46.809Z,59.75
2019-03-04T06:59:29.749Z,58.93
2019-03-04T07:02:05.177Z,58.81
2019-03-04T07:04:52.642Z,58.36
2019-03-04T07:07:21.839Z,57.70
2019-03-04T07:09:51.032Z,57.13
2019-03-04T07:12:20.228Z,56.54
2019-03-04T07:14:49.432Z,56.57
2019-03-04T07:17:18.640Z,56.35
2019-03-04T07:19:50.070Z,55.57
2019-03-04T07:22:19.246Z,55.25
2019-03-04T07:24:48.462Z,54.29
2019-03-04T07:27:17.638Z,54.89
2019-03-04T07:29:46.856Z,53.33
2019-03-04T07:32:16.034Z,53.38
2019-03-04T07:34:48.380Z,54.10
2019-03-04T07:37:17.814Z,54.04
2019-03-04T07:39:47.040Z,53.46
2019-03-04T07:42:16.264Z,53.81
2019-03-04T07:44:45.695Z,53.52
2019-03-04T07:47:14.887Z,53.54
2019-03-04T07:49:49.407Z,53.33
2019-03-04T07:52:18.625Z,54.00
2019-03-04T07:54:47.840Z,53.67
2019-03-04T07:57:17.028Z,55.68
2019-03-04T07:59:46.253Z,58.34
2019-03-04T08:02:15.465Z,59.01
2019-03-04T08:04:44.681Z,59.81
2019-03-04T08:07:51.709Z,60.85
2019-03-04T08:11:03.504Z,62.20
2019-03-04T08:13:45.477Z,63.76
2019-03-04T08:16:14.691Z,64.65
2019-03-04T08:18:43.881Z,64.98
2019-03-04T08:21:13.109Z,64.12
2019-03-04T08:23:42.326Z,65.42
2019-03-04T08:26:11.637Z,65.00
2019-03-04T08:28:40.825Z,65.44
2019-03-04T08:31:10.107Z,65.21
2019-03-04T08:33:39.319Z,63.94
2019-03-04T08:36:08.497Z,64.56
2019-03-04T08:38:37.681Z,63.11
2019-03-04T08:41:06.983Z,64.87
2019-03-04T08:43:36.190Z,64.25
2019-03-04T08:46:05.502Z,64.45
2019-03-04T08:48:34.708Z,63.89
2019-03-04T08:51:03.881Z,63.78
2019-03-04T08:53:33.178Z,63.89
2019-03-04T08:56:02.361Z,62.72
2019-03-04T08:58:31.546Z,64.51
2019-03-04T09:01:00.750Z,64.23
2019-03-04T09:03:29.950Z,63.50
2019-03-04T09:05:59.152Z,62.59
2019-03-04T09:08:28.375Z,62.13
2019-03-04T09:10:57.584Z,60.95
2019-03-04T09:13:26.778Z,61.12
2019-03-04T09:15:56.013Z,62.33
2019-03-04T09:18:25.213Z,61.29
2019-03-04T09:20:54.407Z,61.99
2019-03-04T09:23:23.591Z,60.69
2019-03-04T09:26:00.283Z,58.59
2019-03-04T09:28:29.457Z,54.90
2019-03-04T09:30:58.660Z,50.43
2019-03-04T09:33:27.890Z,47.38
2019-03-04T09:35:57.099Z,44.33
2019-03-04T09:38:26.307Z,42.76
2019-03-04T09:40:55.503Z,42.11
2019-03-04T09:43:24.777Z,43.74
2019-03-04T09:45:53.941Z,44.78
2019-03-04T09:48:23.158Z,45.26
2019-03-04T09:50:52.319Z,46.83
2019-03-04T09:53:21.505Z,46.00
2019-03-04T09:55:50.764Z,46.07
2019-03-04T09:58:19.948Z,45.65
2019-03-04T10:01:22.973Z,45.56
2019-03-04T10:04:27.774Z,46.03
2019-03-04T10:07:27.825Z,43.65
2019-03-04T10:11:01.949Z,43.39
2019-03-04T10:14:33.070Z,43.13
2019-03-04T10:18:04.170Z,42.78
2019-03-04T10:21:22.996Z,41.07
2019-03-04T10:24:21.693Z,41.33
2019-03-04T10:27:36.270Z,41.74
2019-03-04T10:30:16.508Z,41.18
2019-03-04T10:33:31.719Z,43.20
2019-03-04T10:36:32.022Z,43.20
2019-03-04T10:39:36.243Z,42.98
2019-03-04T10:42:49.796Z,44.78
2019-03-04T10:45:57.117Z,45.40
2019-03-04T10:48:26.304Z,44.52
2019-03-04T10:50:55.639Z,45.07
2019-03-04T10:53:24.839Z,45.92
2019-03-04T10:55:54.032Z,44.00
2019-03-04T10:58:23.249Z,45.56
2019-03-04T11:00:52.451Z,45.70
2019-03-04T11:03:21.759Z,45.21
2019-03-04T11:05:50.976Z,45.45
2019-03-04T11:08:20.212Z,47.28
2019-03-04T11:10:49.804Z,47.27
2019-03-04T11:13:19.008Z,46.43
2019-03-04T11:15:48.495Z,47.81
2019-03-04T11:18:17.738Z,47.95
2019-03-04T11:20:46.916Z,49.05
2019-03-04T11:23:16.120Z,48.19
2019-03-04T11:25:45.376Z,48.65
2019-03-04T11:28:14.575Z,49.93
2019-03-04T11:30:43.807Z,51.61
2019-03-04T11:33:13.014Z,51.42
2019-03-04T11:35:42.232Z,51.66
2019-03-04T11:38:34.490Z,51.87
2019-03-04T11:41:04.206Z,51.74
2019-03-04T11:43:33.396Z,52.50
2019-03-04T11:46:02.694Z,52.63
2019-03-04T11:48:31.915Z,52.86
2019-03-04T11:51:01.099Z,53.27
2019-03-04T11:53:30.301Z,53.01
2019-03-04T11:55:59.892Z,53.58
2019-03-04T11:58:29.170Z,53.03
2019-03-04T12:01:03.648Z,52.54
2019-03-04T12:03:32.891Z,53.07
2019-03-04T12:06:02.084Z,53.11
2019-03-04T12:08:31.324Z,53.06
2019-03-04T12:11:00.571Z,52.39
2019-03-04T12:13:29.791Z,52.29
2019-03-04T12:15:59.049Z,52.80
2019-03-04T12:18:28.245Z,53.41
2019-03-04T12:20:57.471Z,52.95
2019-03-04T12:23:26.681Z,53.51
2019-03-04T12:25:55.886Z,53.91
2019-03-04T12:28:25.130Z,53.79
2019-03-04T12:30:54.360Z,54.17
2019-03-04T12:33:23.572Z,55.27
2019-03-04T12:35:52.767Z,56.00
2019-03-04T12:38:22.010Z,56.56
2019-03-04T12:40:51.198Z,55.63
2019-03-04T12:43:20.438Z,56.01
2019-03-04T12:45:49.634Z,58.42
2019-03-04T12:48:18.894Z,57.91
2019-03-04T12:50:48.083Z,59.97
2019-03-04T12:53:17.280Z,62.30
2019-03-04T12:55:47.038Z,63.26
2019-03-04T12:58:16.283Z,64.30
2019-03-04T13:00:45.637Z,63.40
2019-03-04T13:03:22.847Z,64.22
2019-03-04T13:05:52.129Z,63.48
2019-03-04T13:08:21.337Z,63.74
2019-03-04T13:10:50.567Z,63.72
2019-03-04T13:13:19.785Z,65.05
2019-03-04T13:15:50.746Z,65.51
2019-03-04T13:18:19.954Z,65.72
2019-03-04T13:20:49.171Z,65.13
2019-03-04T13:23:18.387Z,65.60
2019-03-04T13:25:47.578Z,65.67
2019-03-04T13:28:16.774Z,66.42
2019-03-04T13:30:46.049Z,67.40
2019-03-04T13:33:15.476Z,66.96
2019-03-04T13:35:44.786Z,66.77
2019-03-04T13:38:13.981Z,65.47
2019-03-04T13:40:43.189Z,65.29
2019-03-04T13:43:12.397Z,65.40
2019-03-04T13:45:41.663Z,65.00
2019-03-04T13:48:10.947Z,64.67
2019-03-04T13:50:40.142Z,64.83
2019-03-04T13:53:09.341Z,64.35
2019-03-04T13:55:38.562Z,64.95
2019-03-04T13:58:07.907Z,65.51
2019-03-04T14:00:37.505Z,64.09
2019-03-04T14:03:06.790Z,64.27
2019-03-04T14:05:35.963Z,63.73
2019-03-04T14:08:05.358Z,63.35
2019-03-04T14:10:35.992Z,63.17
2019-03-04T14:13:05.240Z,62.84
2019-03-04T14:15:36.552Z,62.39
2019-03-04T14:18:05.956Z,61.86
2019-03-04T14:20:35.283Z,61.70
2019-03-04T14:23:04.889Z,59.92
2019-03-04T14:25:34.262Z,60.62
2019-03-04T14:28:03.657Z,59.91
2019-03-04T14:30:32.877Z,60.44
2019-03-04T14:33:02.105Z,62.00
2019-03-04T14:35:31.291Z,61.28
2019-03-04T14:38:00.523Z,61.05
2019-03-04T14:40:29.790Z,61.76
2019-03-04T14:42:59.077Z,61.51
2019-03-04T14:45:28.616Z,61.25
2019-03-04T14:47:58.007Z,59.83
2019-03-04T14:50:28.548Z,60.77
2019-03-04T14:52:57.925Z,61.26
2019-03-04T14:55:27.168Z,62.13
2019-03-04T14:57:56.389Z,60.97
2019-03-04T15:00:29.855Z,60.87
2019-03-04T15:02:59.166Z,59.86
2019-03-04T15:05:28.488Z,59.94
2019-03-04T15:07:57.923Z,59.73
2019-03-04T15:10:28.258Z,60.29
2019-03-04T15:12:57.494Z,60.66
2019-03-04T15:15:26.862Z,59.97
2019-03-04T15:17:56.170Z,58.79
2019-03-04T15:20:25.972Z,59.86
2019-03-04T15:22:55.604Z,59.53
2019-03-04T15:25:30.309Z,59.64
2019-03-04T15:28:11.975Z,58.97
2019-03-04T15:30:42.076Z,60.21
2019-03-04T15:33:17.926Z,60.35
2019-03-04T15:35:42.450Z,60.97
2019-03-04T15:38:11.861Z,60.87
2019-03-04T15:40:41.285Z,60.99
2019-03-04T15:43:10.564Z,60.71
2019-03-04T15:45:43.430Z,59.77
2019-03-04T15:48:13.242Z,60.64
2019-03-04T15:50:42.526Z,59.75
2019-03-04T15:53:12.149Z,61.15
2019-03-04T15:55:41.489Z,59.25
2019-03-04T15:58:10.785Z,59.65
2019-03-04T16:00:40.222Z,58.91
2019-03-04T16:03:09.559Z,58.86
2019-03-04T16:05:39.616Z,57.89
2019-03-04T16:08:08.947Z,58.31
2019-03-04T16:10:38.379Z,59.22
2019-03-04T16:13:08.006Z,58.39
2019-03-04T16:15:39.103Z,57.50
2019-03-04T16:18:08.325Z,58.13
2019-03-04T16:20:37.562Z,57.42
2019-03-04T16:23:07.034Z,58.16
2019-03-04T16:25:36.269Z,58.20
2019-03-04T16:28:17.710Z,56.85
2019-03-04T16:30:49.211Z,57.97
2019-03-04T16:33:18.654Z,56.19
2019-03-04T16:35:47.912Z,56.34
2019-03-04T16:38:17.150Z,56.06
2019-03-04T16:40:46.368Z,55.55
2019-03-04T16:43:15.585Z,56.04
2019-03-04T16:45:44.950Z,55.99
2019-03-04T16:48:14.376Z,55.60
2019-03-04T16:50:43.878Z,55.05
2019-03-04T16:53:14.040Z,55.28
2019-03-04T16:55:43.318Z,56.08
2019-03-04T16:58:12.777Z,56.17
2019-03-04T17:00:42.686Z,56.79
2019-03-04T17:03:12.284Z,55.74
2019-03-04T17:05:42.188Z,55.25
2019-03-04T17:08:12.172Z,54.57
2019-03-04T17:10:41.418Z,54.47
2019-03-04T17:13:10.692Z,54.40
2019-03-04T17:15:39.909Z,55.75
2019-03-04T17:18:09.192Z,56.21
2019-03-04T17:20:38.398Z,55.29
2019-03-04T17:23:08.345Z,55.65
2019-03-04T17:25:37.693Z,55.30
2019-03-04T17:28:06.996Z,56.00
2019-03-04T17:30:36.211Z,56.10
2019-03-04T17:33:05.656Z,55.73
2019-03-04T17:35:34.891Z,55.59
2019-03-04T17:38:04.113Z,56.00
2019-03-04T17:40:33.343Z,55.43
2019-03-04T17:43:02.585Z,55.84
2019-03-04T17:45:31.776Z,55.50
2019-03-04T17:48:00.994Z,56.04
2019-03-04T17:50:32.886Z,55.58
2019-03-04T17:53:03.104Z,56.20
2019-03-04T17:55:32.976Z,56.31
2019-03-04T17:58:02.230Z,56.46
2019-03-04T18:00:31.435Z,56.09
2019-03-04T18:03:00.687Z,56.58
2019-03-04T18:05:29.997Z,56.33
2019-03-04T18:07:59.242Z,56.66
2019-03-04T18:10:28.553Z,56.75
2019-03-04T18:12:57.963Z,56.86
2019-03-04T18:15:27.290Z,56.82
2019-03-04T18:17:56.516Z,56.56
2019-03-04T18:20:34.076Z,56.19
2019-03-04T18:22:56.761Z,56.96
2019-03-04T18:25:36.674Z,56.61
2019-03-04T18:28:09.887Z,56.79
2019-03-04T18:31:17.251Z,57.02
2019-03-04T18:34:24.739Z,56.60
2019-03-04T18:37:13.227Z,56.17
2019-03-04T18:40:05.781Z,56.67
2019-03-04T18:42:57.512Z,56.64
2019-03-04T18:46:13.903Z,55.74
2019-03-04T18:48:54.700Z,56.16
2019-03-04T18:51:24.115Z,56.55
2019-03-04T18:53:55.013Z,56.44
2019-03-04T18:56:24.448Z,56.63
2019-03-04T18:58:53.840Z,57.06
2019-03-04T19:01:23.132Z,56.34
2019-03-04T19:03:52.562Z,56.24
2019-03-04T19:06:21.946Z,56.36
2019-03-04T19:08:51.280Z,56.71
2019-03-04T19:11:20.813Z,56.54
2019-03-04T19:13:50.766Z,56.80
2019-03-04T19:16:20.047Z,57.04
2019-03-04T19:18:49.486Z,57.42
2019-03-04T19:21:18.763Z,57.06
2019-03-04T19:23:48.212Z,57.23
2019-03-04T19:26:17.598Z,57.64
2019-03-04T19:28:47.013Z,57.81
2019-03-04T19:31:16.327Z,57.87
2019-03-04T19:33:45.965Z,57.80
2019-03-04T19:36:15.362Z,57.67
2019-03-04T19:38:44.892Z,57.81
2019-03-04T19:41:14.195Z,57.74
2019-03-04T19:43:43.515Z,57.93
2019-03-04T19:46:12.723Z,58.32
2019-03-04T19:48:42.430Z,57.99
2019-03-04T19:51:13.731Z,57.82
2019-03-04T19:53:43.329Z,57.73
2019-03-04T19:56:12.665Z,57.47
2019-03-04T19:58:42.041Z,57.59
2019-03-04T20:01:12.388Z,57.70
2019-03-04T20:03:41.947Z,58.52
2019-03-04T20:06:11.442Z,58.03
2019-03-04T20:08:41.092Z,57.64
2019-03-04T20:11:10.474Z,57.50
2019-03-04T20:13:39.729Z,58.15
2019-03-04T20:16:10.415Z,57.91
2019-03-04T20:18:40.074Z,58.51
2019-03-04T20:21:09.930Z,57.93
2019-03-04T20:23:39.669Z,57.73
2019-03-04T20:26:08.977Z,57.56
2019-03-04T20:28:38.807Z,57.62
2019-03-04T20:31:11.054Z,57.51
2019-03-04T20:33:40.368Z,57.75
2019-03-04T20:36:09.644Z,57.22
2019-03-04T20:38:42.480Z,57.67
2019-03-04T20:41:12.156Z,58.09
2019-03-04T20:43:41.727Z,58.27
2019-03-04T20:46:11.001Z,58.39
2019-03-04T20:48:40.421Z,58.61
2019-03-04T20:51:09.970Z,56.83
2019-03-04T20:53:39.435Z,56.95
2019-03-04T20:56:09.097Z,56.44
2019-03-04T20:58:38.836Z,56.78
2019-03-04T21:01:08.931Z,57.41
2019-03-04T21:03:38.769Z,56.80
2019-03-04T21:06:08.792Z,56.19
2019-03-04T21:08:38.360Z,56.88
2019-03-04T21:11:07.751Z,56.06
2019-03-04T21:13:37.186Z,56.56
2019-03-04T21:16:06.644Z,55.96
2019-03-04T21:18:35.925Z,56.28
2019-03-04T21:21:05.810Z,55.89
2019-03-04T21:23:35.034Z,56.18
2019-03-04T21:26:17.230Z,55.79
2019-03-04T21:29:13.572Z,56.03
2019-03-04T21:31:50.438Z,55.76
2019-03-04T21:34:59.257Z,56.16
2019-03-04T21:37:33.380Z,56.02
2019-03-04T21:40:25.538Z,56.89
2019-03-04T21:42:58.537Z,57.02
2019-03-04T21:46:19.715Z,56.91
2019-03-04T21:48:55.792Z,56.87
2019-03-04T21:52:03.170Z,56.67
2019-03-04T21:54:32.424Z,56.86
2019-03-04T21:57:21.611Z,57.36
2019-03-04T21:59:50.861Z,57.30
2019-03-04T22:02:55.757Z,57.50
2019-03-04T22:05:25.106Z,57.21
2019-03-04T22:07:54.399Z,57.49
2019-03-04T22:10:23.767Z,57.80
2019-03-04T22:12:52.997Z,57.96
2019-03-04T22:15:22.199Z,57.99
2019-03-04T22:17:51.423Z,57.94
2019-03-04T22:20:20.661Z,58.08
2019-03-04T22:22:50.052Z,58.24
2019-03-04T22:25:19.230Z,58.26
2019-03-04T22:27:48.430Z,58.47
2019-03-04T22:30:17.801Z,58.84
2019-03-04T22:32:47.126Z,58.72
2019-03-04T22:35:17.337Z,59.07
2019-03-04T22:37:46.891Z,59.27
2019-03-04T22:40:17.574Z,58.98
2019-03-04T22:42:46.767Z,59.16
2019-03-04T22:45:17.510Z,59.28
2019-03-04T22:47:47.122Z,59.31
2019-03-04T22:50:17.011Z,59.08
2019-03-04T22:52:46.206Z,59.21
2019-03-04T22:55:23.801Z,59.37
2019-03-04T22:57:53.001Z,59.10
2019-03-04T23:01:36.018Z,58.87
2019-03-04T23:04:40.431Z,59.28
2019-03-04T23:07:11.903Z,58.93
2019-03-04T23:10:01.532Z,59.08
2019-03-04T23:12:58.313Z,59.15
2019-03-04T23:15:27.521Z,58.96
2019-03-04T23:17:56.699Z,59.13
2019-03-04T23:20:25.887Z,59.39
2019-03-04T23:22:55.161Z,60.18
2019-03-04T23:25:24.403Z,61.24
2019-03-04T23:27:53.603Z,61.75
2019-03-04T23:30:22.801Z,62.49
2019-03-04T23:32:52.017Z,63.35
2019-03-04T23:35:21.187Z,63.96
2019-03-04T23:37:50.413Z,64.57
2019-03-04T23:40:19.635Z,65.33
2019-03-04T23:42:48.814Z,65.44
2019-03-04T23:45:18.027Z,67.13
2019-03-04T23:47:47.196Z,67.18
2019-03-04T23:50:18.642Z,67.44
2019-03-04T23:52:47.868Z,68.23
2019-03-04T23:55:17.119Z,67.74
2019-03-04T23:57:46.434Z,67.30
